Wetterstation Rottenburg Seebronn / 442m msl / http://mut-lambrecht.de
LETZTE AKTUALISIERUNG UM: 02:15 DATUM: November 19 2017, time of next update: 02:20
Aktuelles Wettermostly cloudy - light rain/Night Aktuelle Temperatur 2.0°C (35.6°F), Apparent temp -1.7°C
Höchsttemperatur (seit Mitternacht)2.6°C um: 00:00 Tiefsttemperatur (seit Mitternacht)1.9°C um: 01:47
Windgeschwindigkeit (10 Minuten )12.6 kmh (6.8 kts) Windrichtung (Dir) (10 Minuten )WSW (258°)
Windchill Temperatur -1.5°C Windspitzen (letzte Std)28.7 kmh (15.5 kts) um: 02:01
Windspitzen (seit Mitternacht)29.6 kmh (16.0 kts) um: 02:01 Höchstes Windmittel / Minute (seit Mitternacht)15.5 kmh (8.4 kts) um: 00:51
Regenmenge (letzte Std)0.0 mm Regenmenge (seit Mitternacht)0.0 mm (0.00 in.)---
Regenmenge diesen Monat 44.4 mm (1.75 in.) Regenmenge seit Jahresbeginn 543.9 mm (21.41 in.)
Höchste Regenmenge pro Minute (letzte Std)0.0 mm/min Höchste Regenmenge pro Stunde (letzte 6 Std)0.0 mm/stunde
Regenmenge Gestern 0.0 mm Taupunkt -0.9°C (Wet Bulb :1.0°C )
Luftfeuchtigkeit 81 %, Humidex -0.4°C Aktueller Luftdruck (auf Meereshöhe bezogen)1017.0 hPa
Luftdrucktendenz -0.4 hPa (letzte Std) Trend (letzte 1 Std)gleichbleibend
Luftdrucktendenz (letzte 12 Std)-3.9 hPa Luftdrucktendenz (letzte 6 Std)-3.3 hPa



Weather report/warning/Metars

Stuttgart-Echterdingen, Germany (EDDS) 48-41N 009-13E 391M
Nov 18, 2017 - 07:50 PM EST / 2017.11.19 0050 UTC
Wind: from the SW (230 degrees) at 14 MPH (12 KT) (direction variable):0
Visibility: greater than 7 mile(s):0
Sky conditions: mostly cloudy
Weather: light rain
Temperature: 37 F (3 C)
Dew Point: 33 F (1 C)
Relative Humidity: 86%
Pressure (altimeter): 30.00 in. Hg (1016 hPa)
ob: EDDS 190050Z 23012KT 170V270 9999 -RA BKN047 03/01 Q1016
cycle: 1
Karlsruhe, Baden Wurttemberg, Germany (EDSB) 48-46-43N 008-04-47E
Nov 18, 2017 - 07:50 PM EST / 2017.11.19 0050 UTC
Wind: from the S (190 degrees) at 23 MPH (20 KT):0
Visibility: 5 mile(s):0
Sky conditions: overcast
Temperature: 37 F (3 C)
Dew Point: 35 F (2 C)
Relative Humidity: 93%
Pressure (altimeter): 30.06 in. Hg (1018 hPa)
ob: EDSB 190050Z AUTO 19020KT 9000 // FEW020/// BKN033/// OVC046/// 03/02 Q1018
cycle: 1
Lahr, CAN-AFB, Germany (EDTL) 48-22-09N 007-49-40E
Nov 18, 2017 - 01:50 PM EST / 2017.11.18 1850 UTC
Wind: from the S (190 degrees) at 9 MPH (8 KT):0
Visibility: greater than 7 mile(s):0
Sky conditions: mostly cloudy
Temperature: 41 F (5 C)
Dew Point: 35 F (2 C)
Relative Humidity: 80%
Pressure (altimeter): 30.21 in. Hg (1023 hPa)
ob: EDTL 181850Z 19008KT 9999 BKN042 05/02 Q1023
cycle: 19
Laupheim, Germany (ETHL) 48-13N 009-55E 550M
Nov 18, 2017 - 07:20 PM EST / 2017.11.19 0020 UTC
Wind: from the SW (230 degrees) at 14 MPH (12 KT):0
Visibility: greater than 7 mile(s):0
Sky conditions: mostly cloudy
Weather: light snow
Temperature: 33 F (1 C)
Windchill: 23 F (-5 C):1
Dew Point: 32 F (0 C)
Relative Humidity: 93%
Pressure (altimeter): 30.06 in. Hg (1018 hPa)
ob: ETHL 190020Z 23012KT 9999 -SN SCT008 BKN028 BKN080 01/M00 Q1018 BLU
cycle: 0


Klicken Sie hier, um zu den Durchschnitts-, Extrem-, Monats- oder Tageswerten zu gelangen


Die Wetterdaten werden alle 5 Minuten aktualisiert.
Die untere höherauflösende Windgrafik wird jede Minute aktualisiert.
Bei der Windgrafik sind derzeit die Skalenfarben von Durchschnitt/Böe vertauscht

Drücken Sie gegebenenfalls auf "Aktualisieren" in Ihrem Browser, um die aktuellsten Daten zu erhalten.